sensor_id;sensor_type;location;lat;lon;timestamp;pressure;altitude;pressure_sealevel;temperature;humidity
13041;BME280;6587;42.728;23.288;2022-12-18T00:01:04;95861.56;;;6.05;100.00
13041;BME280;6587;42.728;23.288;2022-12-18T00:03:32;95869.44;;;6.18;100.00
13041;BME280;6587;42.728;23.288;2022-12-18T00:05:59;95880.28;;;6.20;100.00
13041;BME280;6587;42.728;23.288;2022-12-18T00:08:26;95877.56;;;6.11;100.00
13041;BME280;6587;42.728;23.288;2022-12-18T00:10:53;95875.16;;;6.14;100.00
13041;BME280;6587;42.728;23.288;2022-12-18T00:13:21;95877.25;;;6.02;100.00
13041;BME280;6587;42.728;23.288;2022-12-18T00:15:49;95860.16;;;5.86;100.00
13041;BME280;6587;42.728;23.288;2022-12-18T00:18:16;95879.63;;;5.97;100.00
13041;BME280;6587;42.728;23.288;2022-12-18T00:20:43;95882.56;;;5.86;100.00
13041;BME280;6587;42.728;23.288;2022-12-18T00:23:10;95893.28;;;5.83;100.00
13041;BME280;6587;42.728;23.288;2022-12-18T00:25:37;95892.13;;;5.72;100.00
13041;BME280;6587;42.728;23.288;2022-12-18T00:28:04;95896.78;;;5.63;100.00
13041;BME280;6587;42.728;23.288;2022-12-18T00:30:31;95897.72;;;5.66;100.00
13041;BME280;6587;42.728;23.288;2022-12-18T00:32:59;95897.59;;;5.62;100.00
13041;BME280;6587;42.728;23.288;2022-12-18T00:35:26;95904.31;;;5.64;100.00
13041;BME280;6587;42.728;23.288;2022-12-18T00:37:53;95905.88;;;5.61;100.00
13041;BME280;6587;42.728;23.288;2022-12-18T00:40:22;95904.03;;;5.55;100.00
13041;BME280;6587;42.728;23.288;2022-12-18T00:42:49;95898.31;;;5.58;100.00
13041;BME280;6587;42.728;23.288;2022-12-18T00:45:21;95904.69;;;5.49;100.00
13041;BME280;6587;42.728;23.288;2022-12-18T00:47:48;95911.09;;;5.43;100.00
13041;BME280;6587;42.728;23.288;2022-12-18T00:50:17;95913.69;;;5.46;100.00
13041;BME280;6587;42.728;23.288;2022-12-18T00:52:44;95917.06;;;5.48;100.00
13041;BME280;6587;42.728;23.288;2022-12-18T00:55:11;95912.97;;;5.48;100.00
13041;BME280;6587;42.728;23.288;2022-12-18T00:57:38;95930.31;;;5.47;100.00
13041;BME280;6587;42.728;23.288;2022-12-18T01:00:08;95922.38;;;5.59;100.00
13041;BME280;6587;42.728;23.288;2022-12-18T01:02:36;95923.84;;;5.52;100.00
13041;BME280;6587;42.728;23.288;2022-12-18T01:05:04;95932.56;;;5.39;100.00
13041;BME280;6587;42.728;23.288;2022-12-18T01:07:33;95923.22;;;5.34;100.00
13041;BME280;6587;42.728;23.288;2022-12-18T01:10:02;95913.03;;;5.26;100.00
13041;BME280;6587;42.728;23.288;2022-12-18T01:12:29;95938.47;;;5.17;100.00
13041;BME280;6587;42.728;23.288;2022-12-18T01:14:56;95926.75;;;5.39;100.00
13041;BME280;6587;42.728;23.288;2022-12-18T01:17:23;95938.97;;;5.32;100.00
13041;BME280;6587;42.728;23.288;2022-12-18T01:19:50;95911.00;;;5.14;100.00
13041;BME280;6587;42.728;23.288;2022-12-18T01:22:17;95938.13;;;5.32;100.00
13041;BME280;6587;42.728;23.288;2022-12-18T01:24:46;95927.22;;;5.28;100.00
13041;BME280;6587;42.728;23.288;2022-12-18T01:27:13;95950.91;;;5.17;100.00
13041;BME280;6587;42.728;23.288;2022-12-18T01:29:40;95950.66;;;5.10;100.00
13041;BME280;6587;42.728;23.288;2022-12-18T01:32:08;95947.72;;;4.97;100.00
13041;BME280;6587;42.728;23.288;2022-12-18T01:34:35;95951.56;;;4.88;100.00
13041;BME280;6587;42.728;23.288;2022-12-18T01:37:03;95945.56;;;4.82;100.00
13041;BME280;6587;42.728;23.288;2022-12-18T01:39:31;95962.22;;;4.85;100.00
13041;BME280;6587;42.728;23.288;2022-12-18T01:42:00;95958.16;;;4.87;100.00
13041;BME280;6587;42.728;23.288;2022-12-18T01:44:54;95950.53;;;5.06;100.00
13041;BME280;6587;42.728;23.288;2022-12-18T01:47:23;95959.31;;;4.97;100.00
13041;BME280;6587;42.728;23.288;2022-12-18T01:49:51;95951.66;;;4.91;100.00
13041;BME280;6587;42.728;23.288;2022-12-18T01:52:20;95962.22;;;4.85;100.00
13041;BME280;6587;42.728;23.288;2022-12-18T01:54:48;95976.91;;;5.01;100.00
13041;BME280;6587;42.728;23.288;2022-12-18T01:57:20;95977.28;;;4.90;100.00
13041;BME280;6587;42.728;23.288;2022-12-18T01:59:51;95955.91;;;4.71;100.00
13041;BME280;6587;42.728;23.288;2022-12-18T02:02:18;95962.91;;;4.81;100.00
13041;BME280;6587;42.728;23.288;2022-12-18T02:04:46;95970.63;;;4.89;100.00
13041;BME280;6587;42.728;23.288;2022-12-18T02:07:18;95963.34;;;4.93;100.00
13041;BME280;6587;42.728;23.288;2022-12-18T02:09:54;95976.03;;;5.01;100.00
13041;BME280;6587;42.728;23.288;2022-12-18T02:12:33;95979.47;;;5.04;100.00
13041;BME280;6587;42.728;23.288;2022-12-18T02:15:07;95975.03;;;4.96;100.00
13041;BME280;6587;42.728;23.288;2022-12-18T02:17:42;95972.69;;;5.00;100.00
13041;BME280;6587;42.728;23.288;2022-12-18T02:20:13;95990.47;;;4.87;100.00
13041;BME280;6587;42.728;23.288;2022-12-18T02:22:55;95990.25;;;4.81;100.00
13041;BME280;6587;42.728;23.288;2022-12-18T02:25:33;96003.88;;;4.91;100.00
13041;BME280;6587;42.728;23.288;2022-12-18T02:28:09;95992.13;;;4.87;100.00
13041;BME280;6587;42.728;23.288;2022-12-18T02:30:39;95996.22;;;4.86;100.00
13041;BME280;6587;42.728;23.288;2022-12-18T02:33:08;95994.69;;;4.90;100.00
13041;BME280;6587;42.728;23.288;2022-12-18T02:35:40;95994.16;;;4.74;100.00
13041;BME280;6587;42.728;23.288;2022-12-18T02:38:09;96006.59;;;4.74;100.00
13041;BME280;6587;42.728;23.288;2022-12-18T02:40:38;95996.41;;;4.68;100.00
13041;BME280;6587;42.728;23.288;2022-12-18T02:43:11;96009.13;;;4.76;100.00
13041;BME280;6587;42.728;23.288;2022-12-18T02:45:46;95997.38;;;4.72;100.00
13041;BME280;6587;42.728;23.288;2022-12-18T02:48:15;96004.09;;;4.52;100.00
13041;BME280;6587;42.728;23.288;2022-12-18T02:50:45;96006.63;;;4.53;100.00
13041;BME280;6587;42.728;23.288;2022-12-18T02:53:26;96018.84;;;4.70;100.00
13041;BME280;6587;42.728;23.288;2022-12-18T02:56:01;96015.13;;;4.58;100.00
13041;BME280;6587;42.728;23.288;2022-12-18T02:58:35;96021.75;;;4.58;100.00
13041;BME280;6587;42.728;23.288;2022-12-18T03:01:19;96011.53;;;4.50;100.00
13041;BME280;6587;42.728;23.288;2022-12-18T03:03:51;96013.94;;;4.49;100.00
13041;BME280;6587;42.728;23.288;2022-12-18T03:06:26;95996.97;;;4.39;100.00
13041;BME280;6587;42.728;23.288;2022-12-18T03:08:58;96011.88;;;4.39;100.00
13041;BME280;6587;42.728;23.288;2022-12-18T03:11:28;96011.00;;;4.37;100.00
13041;BME280;6587;42.728;23.288;2022-12-18T03:14:17;96010.06;;;4.34;100.00
13041;BME280;6587;42.728;23.288;2022-12-18T03:16:50;96019.56;;;4.45;100.00
13041;BME280;6587;42.728;23.288;2022-12-18T03:19:22;96015.81;;;4.54;100.00
13041;BME280;6587;42.728;23.288;2022-12-18T03:21:53;96003.34;;;4.32;100.00
13041;BME280;6587;42.728;23.288;2022-12-18T03:24:24;96028.09;;;4.51;100.00
13041;BME280;6587;42.728;23.288;2022-12-18T03:26:56;96028.66;;;4.44;100.00
13041;BME280;6587;42.728;23.288;2022-12-18T03:29:31;96039.41;;;4.43;100.00
13041;BME280;6587;42.728;23.288;2022-12-18T03:32:04;96037.09;;;4.48;100.00
13041;BME280;6587;42.728;23.288;2022-12-18T03:34:37;96051.00;;;4.65;100.00
13041;BME280;6587;42.728;23.288;2022-12-18T03:37:07;96056.28;;;4.52;100.00
13041;BME280;6587;42.728;23.288;2022-12-18T03:39:36;96072.75;;;4.50;100.00
13041;BME280;6587;42.728;23.288;2022-12-18T03:42:07;96060.56;;;4.33;100.00
13041;BME280;6587;42.728;23.288;2022-12-18T03:44:48;96058.75;;;4.29;100.00
13041;BME280;6587;42.728;23.288;2022-12-18T03:47:25;96057.09;;;4.30;100.00
13041;BME280;6587;42.728;23.288;2022-12-18T03:50:00;96075.16;;;4.47;100.00
13041;BME280;6587;42.728;23.288;2022-12-18T03:52:36;96073.00;;;4.35;100.00
13041;BME280;6587;42.728;23.288;2022-12-18T03:55:07;96081.94;;;4.30;100.00
13041;BME280;6587;42.728;23.288;2022-12-18T03:57:37;96066.56;;;4.18;100.00
13041;BME280;6587;42.728;23.288;2022-12-18T04:00:09;96072.91;;;4.11;100.00
13041;BME280;6587;42.728;23.288;2022-12-18T04:02:43;96072.06;;;4.10;100.00
13041;BME280;6587;42.728;23.288;2022-12-18T04:05:15;96075.56;;;4.16;100.00
13041;BME280;6587;42.728;23.288;2022-12-18T04:07:45;96067.66;;;4.03;100.00
13041;BME280;6587;42.728;23.288;2022-12-18T04:10:17;96077.03;;;4.10;100.00
13041;BME280;6587;42.728;23.288;2022-12-18T04:12:45;96052.09;;;4.07;100.00
13041;BME280;6587;42.728;23.288;2022-12-18T04:15:15;96089.00;;;4.21;100.00
13041;BME280;6587;42.728;23.288;2022-12-18T04:17:47;96095.44;;;4.16;100.00
13041;BME280;6587;42.728;23.288;2022-12-18T04:20:17;96098.09;;;3.99;100.00
13041;BME280;6587;42.728;23.288;2022-12-18T04:22:45;96092.00;;;4.12;100.00
13041;BME280;6587;42.728;23.288;2022-12-18T04:25:13;96103.31;;;4.26;100.00
13041;BME280;6587;42.728;23.288;2022-12-18T04:27:52;96109.91;;;4.05;100.00
13041;BME280;6587;42.728;23.288;2022-12-18T04:30:20;96123.81;;;4.01;100.00
13041;BME280;6587;42.728;23.288;2022-12-18T04:32:48;96113.53;;;3.92;100.00
13041;BME280;6587;42.728;23.288;2022-12-18T04:35:16;96123.47;;;3.92;100.00
13041;BME280;6587;42.728;23.288;2022-12-18T04:37:43;96122.75;;;3.75;100.00
13041;BME280;6587;42.728;23.288;2022-12-18T04:40:12;96130.34;;;3.99;100.00
13041;BME280;6587;42.728;23.288;2022-12-18T04:42:42;96134.81;;;3.87;100.00
13041;BME280;6587;42.728;23.288;2022-12-18T04:45:10;96117.13;;;3.79;100.00
13041;BME280;6587;42.728;23.288;2022-12-18T04:47:38;96141.91;;;4.18;100.00
13041;BME280;6587;42.728;23.288;2022-12-18T04:50:06;96136.13;;;3.98;100.00
13041;BME280;6587;42.728;23.288;2022-12-18T04:52:33;96134.16;;;3.91;100.00
13041;BME280;6587;42.728;23.288;2022-12-18T04:55:00;96144.84;;;3.89;100.00
13041;BME280;6587;42.728;23.288;2022-12-18T04:57:27;96154.63;;;3.85;100.00
13041;BME280;6587;42.728;23.288;2022-12-18T04:59:54;96158.78;;;3.86;100.00
13041;BME280;6587;42.728;23.288;2022-12-18T05:02:21;96156.31;;;3.86;100.00
13041;BME280;6587;42.728;23.288;2022-12-18T05:04:49;96160.63;;;3.91;100.00
13041;BME280;6587;42.728;23.288;2022-12-18T05:07:16;96169.19;;;3.78;100.00
13041;BME280;6587;42.728;23.288;2022-12-18T05:09:43;96169.78;;;3.72;100.00
13041;BME280;6587;42.728;23.288;2022-12-18T05:12:10;96171.09;;;3.64;100.00
13041;BME280;6587;42.728;23.288;2022-12-18T05:14:37;96186.44;;;3.75;100.00
13041;BME280;6587;42.728;23.288;2022-12-18T05:17:04;96180.03;;;3.60;100.00
13041;BME280;6587;42.728;23.288;2022-12-18T05:19:31;96192.19;;;3.93;100.00
13041;BME280;6587;42.728;23.288;2022-12-18T05:21:59;96189.25;;;3.82;100.00
13041;BME280;6587;42.728;23.288;2022-12-18T05:24:27;96185.81;;;3.80;100.00
13041;BME280;6587;42.728;23.288;2022-12-18T05:26:54;96198.56;;;3.69;100.00
13041;BME280;6587;42.728;23.288;2022-12-18T05:29:21;96192.81;;;3.70;100.00
13041;BME280;6587;42.728;23.288;2022-12-18T05:31:48;96200.84;;;3.64;100.00
13041;BME280;6587;42.728;23.288;2022-12-18T05:34:15;96208.53;;;3.70;100.00
13041;BME280;6587;42.728;23.288;2022-12-18T05:36:41;96208.28;;;3.64;100.00
13041;BME280;6587;42.728;23.288;2022-12-18T05:39:10;96216.50;;;3.63;100.00
13041;BME280;6587;42.728;23.288;2022-12-18T05:41:37;96222.72;;;3.53;100.00
13041;BME280;6587;42.728;23.288;2022-12-18T05:44:03;96225.25;;;3.55;100.00
13041;BME280;6587;42.728;23.288;2022-12-18T05:46:30;96223.19;;;3.64;100.00
13041;BME280;6587;42.728;23.288;2022-12-18T05:48:59;96234.00;;;3.66;100.00
13041;BME280;6587;42.728;23.288;2022-12-18T05:51:26;96233.63;;;3.57;100.00
13041;BME280;6587;42.728;23.288;2022-12-18T05:53:53;96227.41;;;3.67;100.00
13041;BME280;6587;42.728;23.288;2022-12-18T05:56:22;96230.25;;;3.94;100.00
13041;BME280;6587;42.728;23.288;2022-12-18T05:58:51;96235.13;;;3.73;100.00
13041;BME280;6587;42.728;23.288;2022-12-18T06:01:22;96241.41;;;3.65;100.00
13041;BME280;6587;42.728;23.288;2022-12-18T06:03:49;96247.38;;;3.50;100.00
13041;BME280;6587;42.728;23.288;2022-12-18T06:06:18;96260.78;;;3.54;100.00
13041;BME280;6587;42.728;23.288;2022-12-18T06:08:45;96258.31;;;3.73;100.00
13041;BME280;6587;42.728;23.288;2022-12-18T06:11:15;96260.13;;;3.58;100.00
13041;BME280;6587;42.728;23.288;2022-12-18T06:13:43;96258.63;;;3.61;100.00
13041;BME280;6587;42.728;23.288;2022-12-18T06:16:10;96261.75;;;3.57;100.00
13041;BME280;6587;42.728;23.288;2022-12-18T06:18:37;96256.50;;;3.51;100.00
13041;BME280;6587;42.728;23.288;2022-12-18T06:21:05;96266.00;;;3.60;100.00
13041;BME280;6587;42.728;23.288;2022-12-18T06:23:31;96261.31;;;3.66;100.00
13041;BME280;6587;42.728;23.288;2022-12-18T06:25:58;96259.63;;;3.65;100.00
13041;BME280;6587;42.728;23.288;2022-12-18T06:28:29;96267.38;;;3.53;100.00
13041;BME280;6587;42.728;23.288;2022-12-18T06:30:58;96263.38;;;3.57;100.00
13041;BME280;6587;42.728;23.288;2022-12-18T06:33:26;96278.34;;;3.58;100.00
13041;BME280;6587;42.728;23.288;2022-12-18T06:35:53;96277.56;;;3.59;100.00
13041;BME280;6587;42.728;23.288;2022-12-18T06:38:20;96272.66;;;3.61;100.00
13041;BME280;6587;42.728;23.288;2022-12-18T06:40:47;96281.53;;;3.56;100.00
13041;BME280;6587;42.728;23.288;2022-12-18T06:43:14;96289.75;;;3.55;100.00
13041;BME280;6587;42.728;23.288;2022-12-18T06:45:41;96294.72;;;3.55;100.00
13041;BME280;6587;42.728;23.288;2022-12-18T06:48:09;96297.28;;;3.56;100.00
13041;BME280;6587;42.728;23.288;2022-12-18T06:50:36;96294.66;;;3.53;100.00
13041;BME280;6587;42.728;23.288;2022-12-18T06:53:03;96292.88;;;3.51;100.00
13041;BME280;6587;42.728;23.288;2022-12-18T06:55:30;96301.75;;;3.64;100.00
13041;BME280;6587;42.728;23.288;2022-12-18T06:57:57;96303.22;;;3.60;100.00
13041;BME280;6587;42.728;23.288;2022-12-18T07:00:23;96301.31;;;3.54;100.00
13041;BME280;6587;42.728;23.288;2022-12-18T07:02:50;96297.63;;;3.64;100.00
13041;BME280;6587;42.728;23.288;2022-12-18T07:05:19;96309.53;;;3.71;100.00
13041;BME280;6587;42.728;23.288;2022-12-18T07:07:45;96310.38;;;3.72;100.00
13041;BME280;6587;42.728;23.288;2022-12-18T07:10:13;96302.94;;;3.54;100.00
13041;BME280;6587;42.728;23.288;2022-12-18T07:12:40;96311.38;;;3.57;100.00
13041;BME280;6587;42.728;23.288;2022-12-18T07:15:07;96319.09;;;3.64;100.00
13041;BME280;6587;42.728;23.288;2022-12-18T07:17:34;96326.75;;;3.68;100.00
13041;BME280;6587;42.728;23.288;2022-12-18T07:20:01;96332.34;;;3.64;100.00
13041;BME280;6587;42.728;23.288;2022-12-18T07:22:30;96327.63;;;3.88;100.00
13041;BME280;6587;42.728;23.288;2022-12-18T07:24:57;96323.00;;;3.58;100.00
13041;BME280;6587;42.728;23.288;2022-12-18T07:27:24;96329.53;;;3.56;100.00
13041;BME280;6587;42.728;23.288;2022-12-18T07:29:51;96335.56;;;3.81;100.00
13041;BME280;6587;42.728;23.288;2022-12-18T07:32:18;96333.41;;;3.69;100.00
13041;BME280;6587;42.728;23.288;2022-12-18T07:34:44;96332.34;;;3.46;100.00
13041;BME280;6587;42.728;23.288;2022-12-18T07:37:11;96344.03;;;3.67;100.00
13041;BME280;6587;42.728;23.288;2022-12-18T07:39:39;96338.88;;;3.62;100.00
13041;BME280;6587;42.728;23.288;2022-12-18T07:42:08;96341.78;;;3.71;100.00
13041;BME280;6587;42.728;23.288;2022-12-18T07:44:52;96346.66;;;3.52;100.00
13041;BME280;6587;42.728;23.288;2022-12-18T07:47:19;96345.03;;;3.70;100.00
13041;BME280;6587;42.728;23.288;2022-12-18T07:49:46;96343.81;;;3.62;100.00
13041;BME280;6587;42.728;23.288;2022-12-18T07:52:13;96342.84;;;3.58;100.00
13041;BME280;6587;42.728;23.288;2022-12-18T07:54:41;96351.84;;;3.56;100.00
13041;BME280;6587;42.728;23.288;2022-12-18T07:57:08;96355.34;;;3.60;100.00
13041;BME280;6587;42.728;23.288;2022-12-18T07:59:35;96358.06;;;3.66;100.00
13041;BME280;6587;42.728;23.288;2022-12-18T08:02:02;96361.00;;;3.75;100.00
13041;BME280;6587;42.728;23.288;2022-12-18T08:04:29;96367.28;;;3.86;100.00
13041;BME280;6587;42.728;23.288;2022-12-18T08:06:56;96363.97;;;3.86;100.00
13041;BME280;6587;42.728;23.288;2022-12-18T08:09:23;96369.94;;;3.72;100.00
13041;BME280;6587;42.728;23.288;2022-12-18T08:11:51;96363.31;;;3.72;100.00
13041;BME280;6587;42.728;23.288;2022-12-18T08:14:18;96370.28;;;3.79;100.00
13041;BME280;6587;42.728;23.288;2022-12-18T08:16:45;96382.75;;;3.63;100.00
13041;BME280;6587;42.728;23.288;2022-12-18T08:19:11;96375.78;;;3.74;100.00
13041;BME280;6587;42.728;23.288;2022-12-18T08:21:38;96392.09;;;3.69;100.00
13041;BME280;6587;42.728;23.288;2022-12-18T08:24:06;96387.59;;;3.60;100.00
13041;BME280;6587;42.728;23.288;2022-12-18T08:26:33;96384.13;;;3.74;100.00
13041;BME280;6587;42.728;23.288;2022-12-18T08:29:01;96379.75;;;3.88;100.00
13041;BME280;6587;42.728;23.288;2022-12-18T08:31:29;96392.59;;;3.79;100.00
13041;BME280;6587;42.728;23.288;2022-12-18T08:33:57;96395.09;;;3.79;100.00
13041;BME280;6587;42.728;23.288;2022-12-18T08:36:24;96398.75;;;3.70;100.00
13041;BME280;6587;42.728;23.288;2022-12-18T08:38:52;96397.91;;;3.69;100.00
13041;BME280;6587;42.728;23.288;2022-12-18T08:41:19;96395.94;;;3.80;100.00
13041;BME280;6587;42.728;23.288;2022-12-18T08:43:46;96400.19;;;3.82;100.00
13041;BME280;6587;42.728;23.288;2022-12-18T08:46:36;96400.00;;;3.78;100.00
13041;BME280;6587;42.728;23.288;2022-12-18T08:49:03;96399.00;;;3.74;100.00
13041;BME280;6587;42.728;23.288;2022-12-18T08:51:31;96415.94;;;3.65;100.00
13041;BME280;6587;42.728;23.288;2022-12-18T08:53:57;96417.72;;;3.85;100.00
13041;BME280;6587;42.728;23.288;2022-12-18T08:56:24;96416.72;;;3.82;100.00
13041;BME280;6587;42.728;23.288;2022-12-18T08:58:52;96406.06;;;3.84;100.00
13041;BME280;6587;42.728;23.288;2022-12-18T09:01:19;96414.94;;;3.97;100.00
13041;BME280;6587;42.728;23.288;2022-12-18T09:03:48;96400.69;;;3.93;100.00
13041;BME280;6587;42.728;23.288;2022-12-18T09:06:16;96407.78;;;3.85;100.00
13041;BME280;6587;42.728;23.288;2022-12-18T09:08:44;96407.03;;;4.06;100.00
13041;BME280;6587;42.728;23.288;2022-12-18T09:11:13;96414.44;;;4.04;100.00
13041;BME280;6587;42.728;23.288;2022-12-18T09:13:41;96401.03;;;4.01;100.00
13041;BME280;6587;42.728;23.288;2022-12-18T09:16:08;96394.09;;;3.94;100.00
13041;BME280;6587;42.728;23.288;2022-12-18T09:18:35;96394.03;;;3.92;100.00
13041;BME280;6587;42.728;23.288;2022-12-18T09:21:09;96402.84;;;4.23;100.00
13041;BME280;6587;42.728;23.288;2022-12-18T09:23:36;96408.09;;;4.29;100.00
13041;BME280;6587;42.728;23.288;2022-12-18T09:26:04;96401.81;;;4.18;100.00
13041;BME280;6587;42.728;23.288;2022-12-18T09:28:31;96400.34;;;4.41;100.00
13041;BME280;6587;42.728;23.288;2022-12-18T09:30:58;96399.53;;;4.22;100.00
13041;BME280;6587;42.728;23.288;2022-12-18T09:33:24;96399.94;;;4.14;100.00
13041;BME280;6587;42.728;23.288;2022-12-18T09:35:51;96405.56;;;4.09;100.00
13041;BME280;6587;42.728;23.288;2022-12-18T09:38:20;96413.28;;;4.16;100.00
13041;BME280;6587;42.728;23.288;2022-12-18T09:40:49;96414.13;;;4.16;100.00
13041;BME280;6587;42.728;23.288;2022-12-18T09:43:19;96409.44;;;4.22;100.00
13041;BME280;6587;42.728;23.288;2022-12-18T09:45:51;96408.06;;;4.47;100.00
13041;BME280;6587;42.728;23.288;2022-12-18T09:48:23;96403.91;;;4.28;100.00
13041;BME280;6587;42.728;23.288;2022-12-18T09:50:55;96408.97;;;4.49;100.00
13041;BME280;6587;42.728;23.288;2022-12-18T09:53:30;96385.09;;;4.33;100.00
13041;BME280;6587;42.728;23.288;2022-12-18T09:55:57;96405.44;;;4.44;100.00
13041;BME280;6587;42.728;23.288;2022-12-18T09:58:28;96405.63;;;4.48;100.00
13041;BME280;6587;42.728;23.288;2022-12-18T10:00:58;96401.97;;;4.59;100.00
13041;BME280;6587;42.728;23.288;2022-12-18T10:03:25;96398.00;;;4.44;100.00
13041;BME280;6587;42.728;23.288;2022-12-18T10:06:00;96399.50;;;4.59;100.00
13041;BME280;6587;42.728;23.288;2022-12-18T10:08:36;96387.38;;;4.67;100.00
13041;BME280;6587;42.728;23.288;2022-12-18T10:11:22;96376.75;;;4.70;100.00
13041;BME280;6587;42.728;23.288;2022-12-18T10:13:57;96408.91;;;4.67;100.00
13041;BME280;6587;42.728;23.288;2022-12-18T10:16:34;96402.94;;;4.82;100.00
13041;BME280;6587;42.728;23.288;2022-12-18T10:19:18;96397.75;;;4.76;100.00
13041;BME280;6587;42.728;23.288;2022-12-18T10:21:52;96392.94;;;4.81;100.00
13041;BME280;6587;42.728;23.288;2022-12-18T10:24:32;96403.03;;;4.84;100.00
13041;BME280;6587;42.728;23.288;2022-12-18T10:27:11;96400.38;;;5.00;100.00
13041;BME280;6587;42.728;23.288;2022-12-18T10:29:40;96401.22;;;5.01;100.00
13041;BME280;6587;42.728;23.288;2022-12-18T10:32:13;96407.19;;;5.04;100.00
13041;BME280;6587;42.728;23.288;2022-12-18T10:34:41;96394.78;;;5.25;100.00
13041;BME280;6587;42.728;23.288;2022-12-18T10:37:13;96405.16;;;5.36;100.00
13041;BME280;6587;42.728;23.288;2022-12-18T10:39:43;96402.81;;;4.99;100.00
13041;BME280;6587;42.728;23.288;2022-12-18T10:42:14;96397.91;;;5.00;100.00
13041;BME280;6587;42.728;23.288;2022-12-18T10:44:42;96402.88;;;5.00;100.00
13041;BME280;6587;42.728;23.288;2022-12-18T10:47:12;96399.53;;;5.00;100.00
13041;BME280;6587;42.728;23.288;2022-12-18T10:49:47;96396.59;;;4.89;100.00
13041;BME280;6587;42.728;23.288;2022-12-18T10:52:18;96400.81;;;4.90;100.00
13041;BME280;6587;42.728;23.288;2022-12-18T10:54:52;96393.75;;;5.01;100.00
13041;BME280;6587;42.728;23.288;2022-12-18T10:57:32;96403.19;;;5.08;100.00
13041;BME280;6587;42.728;23.288;2022-12-18T11:00:20;96394.22;;;5.12;100.00
13041;BME280;6587;42.728;23.288;2022-12-18T11:02:48;96382.00;;;4.97;100.00
13041;BME280;6587;42.728;23.288;2022-12-18T11:05:27;96385.59;;;5.03;100.00
13041;BME280;6587;42.728;23.288;2022-12-18T11:07:54;96400.47;;;5.02;100.00
13041;BME280;6587;42.728;23.288;2022-12-18T11:10:28;96385.69;;;4.86;100.00
13041;BME280;6587;42.728;23.288;2022-12-18T11:12:56;96365.25;;;4.93;100.00
13041;BME280;6587;42.728;23.288;2022-12-18T11:15:35;96368.50;;;4.90;100.00
13041;BME280;6587;42.728;23.288;2022-12-18T11:18:03;96401.13;;;5.19;100.00
13041;BME280;6587;42.728;23.288;2022-12-18T11:20:34;96399.84;;;4.87;100.00
13041;BME280;6587;42.728;23.288;2022-12-18T11:23:04;96393.13;;;4.86;100.00
13041;BME280;6587;42.728;23.288;2022-12-18T11:25:33;96330.03;;;4.63;100.00
13041;BME280;6587;42.728;23.288;2022-12-18T11:28:02;96389.72;;;5.03;100.00
13041;BME280;6587;42.728;23.288;2022-12-18T11:30:31;96410.91;;;5.14;100.00
13041;BME280;6587;42.728;23.288;2022-12-18T11:33:03;96413.66;;;5.01;100.00
13041;BME280;6587;42.728;23.288;2022-12-18T11:35:37;96409.31;;;4.95;100.00
13041;BME280;6587;42.728;23.288;2022-12-18T11:38:16;96397.91;;;5.00;100.00
13041;BME280;6587;42.728;23.288;2022-12-18T11:40:51;96401.41;;;5.25;100.00
13041;BME280;6587;42.728;23.288;2022-12-18T11:43:26;96400.69;;;5.27;100.00
13041;BME280;6587;42.728;23.288;2022-12-18T11:45:59;96401.56;;;5.09;100.00
13041;BME280;6587;42.728;23.288;2022-12-18T11:48:30;96404.13;;;5.10;100.00
13041;BME280;6587;42.728;23.288;2022-12-18T11:51:00;96409.22;;;4.94;100.00
13041;BME280;6587;42.728;23.288;2022-12-18T11:53:29;96406.00;;;5.16;100.00
13041;BME280;6587;42.728;23.288;2022-12-18T11:56:07;96400.50;;;5.03;100.00
13041;BME280;6587;42.728;23.288;2022-12-18T11:58:46;96395.75;;;5.29;100.00
13041;BME280;6587;42.728;23.288;2022-12-18T12:01:35;96398.81;;;5.02;100.00
13041;BME280;6587;42.728;23.288;2022-12-18T12:04:31;96382.66;;;5.12;100.00
13041;BME280;6587;42.728;23.288;2022-12-18T12:07:11;96390.66;;;5.05;100.00
13041;BME280;6587;42.728;23.288;2022-12-18T12:09:48;96395.97;;;5.14;100.00
13041;BME280;6587;42.728;23.288;2022-12-18T12:12:31;96399.66;;;5.03;100.00
13041;BME280;6587;42.728;23.288;2022-12-18T12:15:19;96397.38;;;5.07;100.00
13041;BME280;6587;42.728;23.288;2022-12-18T12:17:50;96402.88;;;5.00;100.00
13041;BME280;6587;42.728;23.288;2022-12-18T12:20:23;96393.75;;;5.20;100.00
13041;BME280;6587;42.728;23.288;2022-12-18T12:22:57;96389.38;;;5.15;100.00
13041;BME280;6587;42.728;23.288;2022-12-18T12:25:35;96418.56;;;5.19;100.00
13041;BME280;6587;42.728;23.288;2022-12-18T12:28:17;96385.00;;;5.09;100.00
13041;BME280;6587;42.728;23.288;2022-12-18T12:30:54;96415.44;;;5.23;100.00
13041;BME280;6587;42.728;23.288;2022-12-18T12:33:36;96395.56;;;5.24;100.00
13041;BME280;6587;42.728;23.288;2022-12-18T12:36:09;96415.84;;;5.13;100.00
13041;BME280;6587;42.728;23.288;2022-12-18T12:38:41;96407.25;;;5.06;100.00
13041;BME280;6587;42.728;23.288;2022-12-18T12:41:13;96383.09;;;5.03;100.00
13041;BME280;6587;42.728;23.288;2022-12-18T12:44:01;96406.47;;;5.07;100.00
13041;BME280;6587;42.728;23.288;2022-12-18T12:46:32;96419.31;;;5.16;100.00
13041;BME280;6587;42.728;23.288;2022-12-18T12:49:02;96412.06;;;5.01;100.00
13041;BME280;6587;42.728;23.288;2022-12-18T12:51:34;96419.44;;;5.19;100.00
13041;BME280;6587;42.728;23.288;2022-12-18T12:54:03;96411.84;;;4.97;100.00
13041;BME280;6587;42.728;23.288;2022-12-18T12:56:38;96418.00;;;5.05;100.00
13041;BME280;6587;42.728;23.288;2022-12-18T12:59:13;96413.94;;;4.88;100.00
13041;BME280;6587;42.728;23.288;2022-12-18T13:01:53;96422.22;;;4.87;100.00
13041;BME280;6587;42.728;23.288;2022-12-18T13:04:26;96422.44;;;4.93;100.00
13041;BME280;6587;42.728;23.288;2022-12-18T13:07:01;96423.63;;;4.81;100.00
13041;BME280;6587;42.728;23.288;2022-12-18T13:09:33;96424.13;;;4.94;100.00
13041;BME280;6587;42.728;23.288;2022-12-18T13:12:04;96422.91;;;4.84;100.00
13041;BME280;6587;42.728;23.288;2022-12-18T13:15:12;96435.59;;;5.10;100.00
13041;BME280;6587;42.728;23.288;2022-12-18T13:17:40;96446.59;;;4.76;100.00